Aérodrome :
LOGIN :

S'inscrire | Disclaimer

   EN    FR    IT 

 










Légende :    VFR   VFR Marginal   IFR   IFR Intensif   IFR Très Intensif
Visi : 
Plafond : 
>= 8 km
>= 3000ft
5 à 8 km
1000 à 3000 ft
1500m à 5 km
500 à 1000 ft
800 à 1500m
200 à 500 ft
< 800m
< 200 ft
Symboles :   Orages  Brouillard  Fortes neiges  Fortes précipitations  Vent > 20 kt
SIGMETs :   Divers  Orages  Givrage  Turbulence  Onde Orograph.  Cendres Volcan.






- Altitude de l'aérodrome : 778 ft
- Code IATA : BRQ


LKTB - Brno-Turany

DERNIER METAR :
  • 150830Z VRB04KT CAVOK 25/17 Q1007 NOSIG

METARs EXPIRÉS :
  • 150800Z 11005KT 070V140 CAVOK 24/17 Q1007 NOSIG
  • 150730Z 09005KT 050V130 CAVOK 24/17 Q1007 NOSIG
  • 150700Z VRB02KT CAVOK 23/17 Q1007 NOSIG
  • 150630Z VRB02KT CAVOK 21/17 Q1007 NOSIG
  • 150600Z VRB02KT CAVOK 20/17 Q1007 NOSIG

TAF TAF LKTB
Valide du 15 à 06h jusqu'au 16 à 12h UTC


150500Z 1506/1612 05004KT CAVOK
TEMPO 1506/1508 5000 BR SCT006
TEMPO 1510/1520 7000 SHRA SCT012 SCT030TCU
PROB30
TEMPO 1512/1520 4000 TSRA BKN020CB



MET'MAP, la Météo Aéronautique d'un coup d'oeil ! - Copyright ORBIFLY Décembre 2007 - Disclaimer

ORBIFLY MET'MAP TEAM :

Programmation & Développement : Alexandra Zaïnal
Sur une idée originale de : Baudouin d'Aumeries
Soutien technique & logistique : Manuel Goepfert
Assistance : Marc-Olivier Méhu




SOURCES & CREDITS :

   NOAA